Time;durP1;ratioP1;P1;durP2;ratioP2;P2;SDS_P1;SDS_P2;PMS_P1;PMS_P2;Temp;Humidity;BMP_temperature;BMP_pressure;BME280_temperature;BME280_humidity;BME280_pressure;Samples;Min_cycle;Max_cycle;Signal;HPM_P1;HPM_P2
2023/12/29 00:00:43;;;;;;;21.88;16.60;;;6.00;99.90;;;;;;4954938;29;20537;-54
2023/12/29 00:03:08;;;;;;;21.67;15.85;;;5.70;99.90;;;;;;4954938;29;20048;-57
2023/12/29 00:05:34;;;;;;;29.15;17.73;;;;;;;;;;4955000;29;20055;-55
2023/12/29 00:08:00;;;;;;;20.92;14.68;;;5.40;99.90;;;;;;4905266;29;20159;-54
2023/12/29 00:10:26;;;;;;;22.27;15.57;;;5.10;99.90;;;;;;4920772;29;20122;-54
2023/12/29 00:12:51;;;;;;;22.35;14.85;;;5.10;99.90;;;;;;4954817;29;20517;-54
2023/12/29 00:15:18;;;;;;;24.30;15.98;;;5.10;99.90;;;;;;4954714;29;20034;-57
2023/12/29 00:17:45;;;;;;;23.17;14.32;;;5.30;99.90;;;;;;4954644;29;20039;-55
2023/12/29 00:20:31;;;;;;;27.17;18.88;;;5.30;99.90;;;;;;4954721;29;20046;-58
2023/12/29 00:22:58;;;;;;;38.45;25.23;;;5.30;99.90;;;;;;4863892;29;20497;-51
2023/12/29 00:25:24;;;;;;;32.75;21.50;;;5.30;99.90;;;;;;4895148;29;20561;-56
2023/12/29 00:27:50;;;;;;;22.58;14.88;;;5.30;99.90;;;;;;4879336;29;20068;-52
2023/12/29 00:30:15;;;;;;;23.65;17.38;;;5.10;99.90;;;;;;4895146;29;20409;-55
2023/12/29 00:32:41;;;;;;;26.20;17.30;;;5.00;99.90;;;;;;4879322;29;20052;-57
2023/12/29 00:35:07;;;;;;;27.10;16.92;;;5.00;99.90;;;;;;4894792;29;20060;-57
2023/12/29 00:37:33;;;;;;;23.05;15.25;;;5.10;99.90;;;;;;4879335;29;20043;-55
2023/12/29 00:39:59;;;;;;;27.98;17.45;;;5.10;99.90;;;;;;4894932;29;20396;-55
2023/12/29 00:42:24;;;;;;;26.88;16.85;;;5.20;99.90;;;;;;4892190;29;20028;-54
2023/12/29 00:44:50;;;;;;;28.65;19.00;;;5.30;99.90;;;;;;4894881;29;20027;-55
2023/12/29 00:47:18;;;;;;;22.80;15.70;;;5.50;99.90;;;;;;4894316;29;20084;-53
2023/12/29 00:49:44;;;;;;;31.25;19.05;;;5.60;99.90;;;;;;4879276;29;20485;-58
2023/12/29 00:52:10;;;;;;;33.10;22.15;;;;;;;;;;4878793;29;20123;-51
2023/12/29 00:54:36;;;;;;;25.38;18.38;;;;;;;;;;4879113;29;20041;-53
2023/12/29 00:57:02;;;;;;;22.90;15.48;;;5.80;99.90;;;;;;4894581;29;20029;-54
2023/12/29 00:59:28;;;;;;;22.20;13.23;;;5.70;99.90;;;;;;4884929;29;20400;-54
2023/12/29 01:01:54;;;;;;;22.85;18.50;;;5.50;99.90;;;;;;4935441;29;20050;-56
2023/12/29 01:04:20;;;;;;;24.23;16.42;;;5.40;99.90;;;;;;4953892;29;20127;-57
2023/12/29 01:06:45;;;;;;;33.88;23.30;;;4.90;99.90;;;;;;4953343;29;20098;-60
2023/12/29 01:09:11;;;;;;;28.88;21.48;;;4.70;99.90;;;;;;4954151;29;20062;-56
2023/12/29 01:11:38;;;;;;;27.83;19.67;;;4.80;99.90;;;;;;4919737;29;20047;-52
2023/12/29 01:14:05;;;;;;;28.58;19.30;;;4.70;99.90;;;;;;4903726;29;20043;-58
2023/12/29 01:16:31;;;;;;;27.30;17.67;;;4.70;99.90;;;;;;4935841;29;20557;-54
2023/12/29 01:18:57;;;;;;;27.88;18.88;;;4.60;99.90;;;;;;4953670;29;20119;-54
2023/12/29 01:21:23;;;;;;;30.35;18.65;;;;;;;;;;4954251;29;20038;-58
2023/12/29 01:23:49;;;;;;;23.80;17.50;;;4.60;99.90;;;;;;4953844;29;20033;-55
2023/12/29 01:26:14;;;;;;;26.58;18.50;;;4.40;99.90;;;;;;4951319;29;20461;-57
2023/12/29 01:28:40;;;;;;;23.60;15.32;;;4.50;99.90;;;;;;4953749;29;20379;-51
2023/12/29 01:31:06;;;;;;;32.10;19.98;;;4.40;99.90;;;;;;4953645;29;20039;-54
2023/12/29 01:33:31;;;;;;;14.50;10.27;;;4.40;99.90;;;;;;4951296;29;20043;-55
2023/12/29 01:35:57;;;;;;;21.95;12.57;;;4.40;99.90;;;;;;4953597;29;20027;-53
2023/12/29 01:38:23;;;;;;;21.13;12.02;;;4.30;99.90;;;;;;4951424;29;20043;-57
2023/12/29 01:40:49;;;;;;;25.95;19.42;;;4.40;99.90;;;;;;4945136;29;20043;-57
2023/12/29 01:43:14;;;;;;;25.83;17.52;;;4.50;99.90;;;;;;4953766;29;20039;-57
2023/12/29 01:45:40;;;;;;;22.48;15.50;;;4.50;99.90;;;;;;4953683;29;20386;-59
2023/12/29 01:48:07;;;;;;;28.17;19.13;;;4.40;99.90;;;;;;4919609;29;20043;-52
2023/12/29 01:50:34;;;;;;;27.35;19.15;;;4.40;99.90;;;;;;4953439;29;20031;-53
2023/12/29 01:53:01;;;;;;;23.88;17.20;;;4.40;99.90;;;;;;4953527;29;20074;-59
2023/12/29 01:55:27;;;;;;;27.23;18.38;;;4.50;99.90;;;;;;4953738;29;20034;-59
2023/12/29 01:57:54;;;;;;;25.02;17.50;;;4.70;99.90;;;;;;4919923;29;20122;-57
2023/12/29 02:00:20;;;;;;;23.35;16.65;;;4.80;99.90;;;;;;4939272;29;20506;-54
2023/12/29 02:02:47;;;;;;;23.98;16.27;;;4.80;99.90;;;;;;4876246;29;20130;-51
2023/12/29 02:05:17;;;;;;;21.67;15.38;;;4.80;99.90;;;;;;4957141;29;20042;-54
2023/12/29 02:07:43;;;;;;;22.23;16.80;;;4.80;99.90;;;;;;4957014;29;20035;-52
2023/12/29 02:10:15;;;;;;;22.85;15.48;;;4.90;99.90;;;;;;4957003;29;20058;-56
2023/12/29 02:12:41;;;;;;;23.17;15.65;;;4.80;99.90;;;;;;4957104;29;20035;-50
2023/12/29 02:15:08;;;;;;;25.30;14.27;;;4.80;99.90;;;;;;4956990;29;20090;-55
2023/12/29 02:17:51;;;;;;;15.95;11.57;;;4.60;99.90;;;;;;4891720;29;20098;-56
2023/12/29 02:20:18;;;;;;;19.77;15.00;;;4.70;99.90;;;;;;4922942;29;20070;-51
2023/12/29 02:22:44;;;;;;;19.23;12.82;;;4.70;99.90;;;;;;4957001;29;20035;-54
2023/12/29 02:25:10;;;;;;;32.30;17.83;;;4.80;99.90;;;;;;4956809;29;20046;-52
2023/12/29 02:27:57;;;;;;;38.88;21.92;;;5.00;99.90;;;;;;4939197;29;20414;-56
2023/12/29 02:30:34;;;;;;;27.25;16.88;;;5.30;99.90;;;;;;4956802;29;20030;-57
2023/12/29 02:33:04;;;;;;;34.03;19.45;;;5.50;99.90;;;;;;4956522;29;20175;-56
2023/12/29 02:35:36;;;;;;;28.95;16.52;;;5.60;99.90;;;;;;4956949;29;20089;-56
2023/12/29 02:38:02;;;;;;;23.00;13.98;;;5.70;99.90;;;;;;4956583;29;20043;-54
2023/12/29 02:40:28;;;;;;;17.02;10.30;;;5.80;99.90;;;;;;4956817;29;20033;-57
2023/12/29 02:42:54;;;;;;;15.27;9.05;;;5.70;99.90;;;;;;4956576;29;20047;-57
2023/12/29 02:45:19;;;;;;;21.25;11.65;;;5.60;99.90;;;;;;4938338;29;20521;-55
2023/12/29 02:47:45;;;;;;;18.15;12.93;;;5.60;99.90;;;;;;4956539;29;20038;-56
2023/12/29 02:50:11;;;;;;;20.42;11.38;;;5.70;99.90;;;;;;4956265;29;20042;-51
2023/12/29 02:52:37;;;;;;;13.65;8.98;;;5.70;99.90;;;;;;4922341;29;20122;-56
2023/12/29 02:55:03;;;;;;;11.68;7.35;;;5.50;99.90;;;;;;4956122;29;20375;-55
2023/12/29 02:57:29;;;;;;;9.25;6.22;;;5.40;99.90;;;;;;4956555;29;20062;-58
2023/12/29 02:59:55;;;;;;;19.98;11.85;;;5.20;99.90;;;;;;4956225;29;20039;-52
2023/12/29 03:02:22;;;;;;;14.18;7.95;;;5.20;99.90;;;;;;4956225;29;20031;-58
2023/12/29 03:04:48;;;;;;;15.68;9.38;;;5.20;99.90;;;;;;4956075;29;20505;-54
2023/12/29 03:07:14;;;;;;;9.10;5.75;;;5.20;99.90;;;;;;4956514;29;20134;-58
2023/12/29 03:09:39;;;;;;;7.95;6.07;;;5.10;99.90;;;;;;4955597;28;20442;-54
2023/12/29 03:12:06;;;;;;;12.48;6.47;;;5.00;99.90;;;;;;4955848;29;20433;-52
2023/12/29 03:14:32;;;;;;;13.65;6.78;;;4.90;99.90;;;;;;4956021;29;20047;-55
2023/12/29 03:16:58;;;;;;;20.30;11.75;;;4.90;99.90;;;;;;4955868;29;20095;-52
2023/12/29 03:19:24;;;;;;;14.82;7.53;;;4.90;99.90;;;;;;4906279;29;20047;-54
2023/12/29 03:21:50;;;;;;;13.80;9.23;;;5.10;99.90;;;;;;4955555;29;20046;-54
2023/12/29 03:24:16;;;;;;;13.40;6.90;;;5.10;99.90;;;;;;4956155;29;20035;-53
2023/12/29 03:26:42;;;;;;;13.20;9.55;;;5.10;99.90;;;;;;4955694;29;20070;-57
2023/12/29 03:29:08;;;;;;;10.75;7.70;;;5.20;99.90;;;;;;4921693;29;20054;-58
2023/12/29 03:31:34;;;;;;;16.27;11.13;;;5.20;99.90;;;;;;4956003;29;20094;-59
2023/12/29 03:33:59;;;;;;;14.57;11.13;;;5.20;99.90;;;;;;4905971;29;20063;-54
2023/12/29 03:36:25;;;;;;;15.18;12.10;;;5.10;99.90;;;;;;4955826;29;20036;-52
2023/12/29 03:38:51;;;;;;;15.60;10.82;;;5.20;99.90;;;;;;4921311;29;20050;-56
2023/12/29 03:41:17;;;;;;;25.60;17.00;;;5.20;99.90;;;;;;4955602;29;20047;-55
2023/12/29 03:43:42;;;;;;;42.40;29.40;;;5.30;99.90;;;;;;4955539;29;20033;-56
2023/12/29 03:46:18;;;;;;;30.75;19.55;;;5.50;99.90;;;;;;4921118;29;20080;-51
2023/12/29 03:48:44;;;;;;;54.45;25.23;;;5.90;99.90;;;;;;4955422;29;20367;-53
2023/12/29 03:51:10;;;;;;;34.35;21.70;;;6.20;99.90;;;;;;4955129;29;20042;-54
2023/12/29 03:53:36;;;;;;;31.15;22.52;;;6.30;99.90;;;;;;4955225;29;20090;-57
2023/12/29 03:56:09;;;;;;;27.10;12.73;;;6.40;99.90;;;;;;4955069;29;20041;-51
2023/12/29 03:58:35;;;;;;;25.88;14.13;;;6.70;99.90;;;;;;4955386;29;20035;-55
2023/12/29 04:01:02;;;;;;;14.23;9.60;;;6.70;99.90;;;;;;4954244;29;20070;-57
2023/12/29 04:03:28;;;;;;;15.02;11.43;;;6.80;99.90;;;;;;4920869;29;20050;-58
2023/12/29 04:05:53;;;;;;;11.73;8.52;;;6.70;99.90;;;;;;4904939;29;20740;-53
2023/12/29 04:08:19;;;;;;;11.00;8.15;;;6.80;99.90;;;;;;4954961;29;20118;-53
2023/12/29 04:10:45;;;;;;;10.73;7.65;;;6.70;99.90;;;;;;4936720;29;20483;-59
2023/12/29 04:13:11;;;;;;;10.93;7.00;;;6.60;99.90;;;;;;4954582;29;20069;-59
2023/12/29 04:15:36;;;;;;;11.35;7.00;;;6.60;99.90;;;;;;4954757;29;20039;-56
2023/12/29 04:18:02;;;;;;;9.95;7.07;;;6.60;99.90;;;;;;4955083;29;20090;-56
2023/12/29 04:20:28;;;;;;;14.40;7.35;;;6.70;99.90;;;;;;4955217;29;20103;-55
2023/12/29 04:22:55;;;;;;;9.18;6.88;;;6.70;99.90;;;;;;4953618;28;20373;-56
2023/12/29 04:25:20;;;;;;;11.95;6.78;;;6.80;99.90;;;;;;4954480;29;20047;-52
2023/12/29 04:27:46;;;;;;;9.75;6.88;;;6.80;99.90;;;;;;4954476;29;20058;-52
2023/12/29 04:30:12;;;;;;;9.23;7.38;;;6.90;99.90;;;;;;4954707;29;20447;-51
2023/12/29 04:32:38;;;;;;;11.32;7.57;;;7.00;99.90;;;;;;4954554;29;20167;-56
2023/12/29 04:35:04;;;;;;;12.77;7.75;;;7.00;99.90;;;;;;4953460;29;20483;-54
2023/12/29 04:37:30;;;;;;;11.60;7.63;;;7.00;99.90;;;;;;4954539;29;20045;-54
2023/12/29 04:39:55;;;;;;;11.32;8.15;;;7.00;99.90;;;;;;4954384;29;20031;-56
2023/12/29 04:42:21;;;;;;;13.23;9.43;;;7.00;99.90;;;;;;4954200;29;20047;-52
2023/12/29 04:44:47;;;;;;;16.70;9.02;;;7.00;99.90;;;;;;4954533;29;20031;-52
2023/12/29 04:47:13;;;;;;;11.23;8.00;;;7.10;99.90;;;;;;4954201;29;20775;-57
2023/12/29 04:49:38;;;;;;;13.80;8.40;;;7.00;99.90;;;;;;4954343;29;20558;-53
2023/12/29 04:52:04;;;;;;;13.85;8.60;;;7.00;99.90;;;;;;4954178;29;20601;-52
2023/12/29 04:54:30;;;;;;;12.65;9.30;;;7.00;99.90;;;;;;4935939;29;20549;-56
2023/12/29 04:56:56;;;;;;;19.92;10.13;;;7.00;99.90;;;;;;4953964;29;20023;-56
2023/12/29 04:59:22;;;;;;;17.50;9.48;;;6.80;99.90;;;;;;4953794;29;20152;-53
2023/12/29 05:01:47;;;;;;;14.45;9.80;;;6.60;99.90;;;;;;4954343;29;20063;-56
2023/12/29 05:04:14;;;;;;;21.17;13.80;;;6.20;99.90;;;;;;4920084;29;20043;-56
2023/12/29 05:06:40;;;;;;;23.50;15.20;;;6.10;99.90;;;;;;4954385;29;20057;-53
2023/12/29 05:09:06;;;;;;;23.60;14.15;;;6.30;99.90;;;;;;4953876;29;20471;-54
2023/12/29 05:11:32;;;;;;;30.70;16.80;;;6.30;99.90;;;;;;4954123;29;20122;-54
2023/12/29 05:13:58;;;;;;;26.55;16.80;;;6.30;99.90;;;;;;4935462;29;20065;-55
2023/12/29 05:16:23;;;;;;;42.95;22.30;;;6.30;99.90;;;;;;4953011;29;20035;-56
2023/12/29 05:18:49;;;;;;;20.25;11.60;;;6.40;99.90;;;;;;4953654;29;20059;-54
2023/12/29 05:21:16;;;;;;;20.13;11.15;;;6.50;99.90;;;;;;4953596;29;20554;-52
2023/12/29 05:23:43;;;;;;;21.35;12.82;;;6.50;99.90;;;;;;4935708;29;20403;-53
2023/12/29 05:26:09;;;;;;;21.50;11.25;;;6.50;99.90;;;;;;4949911;29;20046;-58
2023/12/29 05:28:35;;;;;;;40.78;18.02;;;6.60;99.90;;;;;;4951980;29;20027;-56
2023/12/29 05:31:03;;;;;;;20.38;11.32;;;6.60;99.90;;;;;;4952840;29;20039;-52
2023/12/29 05:33:32;;;;;;;12.88;9.77;;;6.70;99.90;;;;;;4952636;28;20458;-53
2023/12/29 05:35:58;;;;;;;18.45;10.63;;;6.70;99.90;;;;;;4901963;29;20050;-56
2023/12/29 05:38:24;;;;;;;11.93;9.65;;;6.80;99.90;;;;;;4928772;29;20143;-59
2023/12/29 05:40:50;;;;;;;14.27;9.88;;;6.80;99.90;;;;;;4904029;29;20130;-58
2023/12/29 05:43:17;;;;;;;27.52;11.63;;;6.80;99.90;;;;;;4919687;29;20050;-59
2023/12/29 05:45:43;;;;;;;21.13;10.35;;;6.80;99.90;;;;;;4919638;29;20055;-53
2023/12/29 05:48:09;;;;;;;17.33;9.75;;;6.70;99.90;;;;;;4953120;29;20031;-55
2023/12/29 05:50:35;;;;;;;21.45;10.77;;;6.70;99.90;;;;;;4952726;29;20032;-53
2023/12/29 05:53:01;;;;;;;22.25;11.63;;;6.60;99.90;;;;;;4952099;29;20599;-56
2023/12/29 05:55:27;;;;;;;23.98;12.00;;;6.60;99.90;;;;;;4952174;29;20030;-55
2023/12/29 05:57:53;;;;;;;24.08;13.18;;;6.60;99.90;;;;;;4918372;29;20054;-54
2023/12/29 06:00:19;;;;;;;24.52;11.27;;;6.50;99.90;;;;;;4935211;29;20032;-53
2023/12/29 06:02:44;;;;;;;14.13;9.02;;;6.30;99.90;;;;;;4952173;29;20031;-52
2023/12/29 06:05:12;;;;;;;16.23;10.23;;;6.10;99.90;;;;;;4952562;29;20376;-55
2023/12/29 06:07:38;;;;;;;13.23;8.57;;;6.10;99.90;;;;;;4952663;29;20487;-53
2023/12/29 06:10:04;;;;;;;15.07;11.57;;;6.20;99.90;;;;;;4952932;29;20034;-53
2023/12/29 06:12:29;;;;;;;22.10;12.65;;;6.40;99.90;;;;;;4932818;29;20043;-52
2023/12/29 06:14:55;;;;;;;20.77;12.70;;;6.50;99.90;;;;;;4952814;29;20036;-55
2023/12/29 06:17:21;;;;;;;20.42;13.20;;;6.60;99.90;;;;;;4953788;29;20035;-53
2023/12/29 06:19:47;;;;;;;20.60;11.30;;;6.60;99.90;;;;;;4952335;29;20075;-55
2023/12/29 06:22:14;;;;;;;18.00;11.85;;;6.60;99.90;;;;;;4926337;29;20452;-55
2023/12/29 06:24:40;;;;;;;23.48;14.77;;;6.60;99.90;;;;;;4953297;29;20373;-56
2023/12/29 06:27:08;;;;;;;28.50;18.08;;;6.60;99.90;;;;;;4900135;29;20522;-53
2023/12/29 06:29:34;;;;;;;22.75;19.05;;;6.60;99.90;;;;;;4933916;29;20034;-52
2023/12/29 06:32:00;;;;;;;28.10;20.63;;;6.40;99.90;;;;;;4915380;29;20061;-55
2023/12/29 06:34:26;;;;;;;61.45;38.90;;;6.40;99.90;;;;;;4916071;29;20503;-54
2023/12/29 06:36:51;;;;;;;48.13;33.50;;;6.10;99.90;;;;;;4933677;29;20028;-55
2023/12/29 06:39:17;;;;;;;45.75;31.55;;;6.30;99.90;;;;;;4934347;29;20435;-55
2023/12/29 06:41:43;;;;;;;47.08;30.65;;;6.40;99.90;;;;;;4912335;29;20040;-52
2023/12/29 06:44:09;;;;;;;35.05;23.15;;;6.50;99.90;;;;;;4887820;29;20392;-53
2023/12/29 06:46:37;;;;;;;38.58;28.80;;;6.40;99.90;;;;;;4918252;29;20028;-55
2023/12/29 06:49:03;;;;;;;35.05;25.30;;;6.60;99.90;;;;;;4916096;29;20040;-53
2023/12/29 06:51:29;;;;;;;34.80;26.15;;;6.70;99.90;;;;;;4918438;29;20091;-56
2023/12/29 06:53:54;;;;;;;55.97;36.58;;;6.90;99.90;;;;;;4915897;29;20048;-55
2023/12/29 06:56:21;;;;;;;51.45;37.72;;;;;;;;;;4918349;29;20063;-55
2023/12/29 06:58:47;;;;;;;33.88;25.52;;;9.00;99.90;;;;;;4916130;29;20400;-53
2023/12/29 07:01:13;;;;;;;25.48;17.95;;;9.50;99.90;;;;;;4918164;29;20028;-52
2023/12/29 07:03:39;;;;;;;23.25;18.85;;;;;;;;;;4918530;29;20395;-54
2023/12/29 07:06:05;;;;;;;27.90;20.67;;;8.60;99.90;;;;;;4917931;29;20028;-52
2023/12/29 07:08:31;;;;;;;24.55;18.70;;;9.20;99.90;;;;;;4916062;29;20047;-54
2023/12/29 07:10:57;;;;;;;32.17;22.63;;;10.10;99.90;;;;;;4917981;29;20036;-53
2023/12/29 07:13:22;;;;;;;28.65;18.52;;;9.20;99.90;;;;;;4917984;29;20028;-55
2023/12/29 07:15:49;;;;;;;28.90;18.60;;;;;;;;;;4917984;29;20032;-52
2023/12/29 07:18:15;;;;;;;31.55;20.58;;;9.50;99.90;;;;;;4918278;29;20396;-55
2023/12/29 07:20:41;;;;;;;24.10;16.45;;;;;;;;;;4918159;29;20031;-54
2023/12/29 07:23:07;;;;;;;21.63;16.00;;;;;;;;;;4918136;29;20036;-54
2023/12/29 07:25:33;;;;;;;19.15;14.55;;;13.00;99.00;;;;;;4915662;29;20040;-52
2023/12/29 07:27:59;;;;;;;19.92;15.75;;;;;;;;;;4932640;29;20080;-51
2023/12/29 07:30:25;;;;;;;21.67;16.45;;;14.20;96.00;;;;;;4936753;29;20455;-55
2023/12/29 07:32:51;;;;;;;20.90;16.08;;;14.50;94.70;;;;;;4936454;29;20043;-54
2023/12/29 07:35:19;;;;;;;16.17;13.20;;;;;;;;;;4936761;29;20091;-53
2023/12/29 07:37:46;;;;;;;13.30;11.10;;;15.30;93.10;;;;;;4936817;29;20024;-53
2023/12/29 07:40:12;;;;;;;19.73;11.77;;;15.20;92.50;;;;;;4936237;29;20036;-52
2023/12/29 07:42:40;;;;;;;16.23;11.25;;;;;;;;;;4918574;29;20480;-53
2023/12/29 07:45:06;;;;;;;14.38;11.52;;;12.70;94.10;;;;;;4936445;29;20391;-54
2023/12/29 07:47:32;;;;;;;14.80;10.10;;;12.80;95.50;;;;;;4918213;29;20503;-52
2023/12/29 07:49:58;;;;;;;17.20;10.45;;;12.60;99.90;;;;;;4936186;29;20027;-53
2023/12/29 07:52:23;;;;;;;21.65;10.50;;;12.30;96.70;;;;;;4936261;29;20030;-52
2023/12/29 07:54:49;;;;;;;14.02;9.25;;;11.80;98.80;;;;;;4918274;29;20048;-55
2023/12/29 07:57:15;;;;;;;14.27;8.30;;;11.90;99.80;;;;;;4936383;29;20076;-55
2023/12/29 07:59:41;;;;;;;10.25;7.72;;;;;;;;;;4936366;29;20487;-52
2023/12/29 08:02:07;;;;;;;11.95;10.05;;;12.20;99.90;;;;;;4936078;29;20043;-54
2023/12/29 08:04:33;;;;;;;12.40;8.25;;;;;;;;;;4938569;29;20031;-55
2023/12/29 08:06:59;;;;;;;6.18;4.63;;;;;;;;;;4937183;29;20090;-56
2023/12/29 08:09:26;;;;;;;9.35;7.07;;;;;;;;;;4938485;29;20038;-53
2023/12/29 08:11:52;;;;;;;7.05;4.28;;;;;;;;;;4936460;29;20023;-52
2023/12/29 08:14:18;;;;;;;10.32;6.57;;;;;;;;;;4936268;29;20046;-52
2023/12/29 08:16:44;;;;;;;7.63;5.40;;;;;;;;;;4918144;29;20046;-53
2023/12/29 08:19:10;;;;;;;13.65;8.13;;;;;;;;;;4935696;29;20028;-54
2023/12/29 08:21:37;;;;;;;10.90;8.18;;;10.60;99.90;;;;;;4936070;29;20028;-56
2023/12/29 08:24:03;;;;;;;14.23;9.63;;;10.80;99.90;;;;;;4935514;29;20028;-54
2023/12/29 08:26:29;;;;;;;16.30;10.65;;;11.20;99.90;;;;;;4917643;29;20051;-51
2023/12/29 08:28:54;;;;;;;18.13;11.38;;;11.70;99.90;;;;;;4935643;29;20063;-51
2023/12/29 08:31:22;;;;;;;15.15;11.50;;;11.80;99.90;;;;;;4935707;29;20090;-53
2023/12/29 08:33:48;;;;;;;14.27;10.32;;;12.70;99.90;;;;;;4935896;29;20606;-52
2023/12/29 08:36:17;;;;;;;14.00;9.68;;;13.40;99.90;;;;;;4917439;29;20071;-54
2023/12/29 08:38:43;;;;;;;13.07;9.32;;;;;;;;;;4935392;29;20118;-54
2023/12/29 08:41:09;;;;;;;16.80;12.30;;;;;;;;;;4935218;29;20539;-52
2023/12/29 08:43:36;;;;;;;16.63;11.23;;;;;;;;;;4945291;29;20031;-53
2023/12/29 08:46:02;;;;;;;15.77;11.52;;;14.20;99.90;;;;;;4951080;29;20086;-53
2023/12/29 08:48:28;;;;;;;28.35;17.45;;;;;;;;;;4953104;28;20042;-53
2023/12/29 08:50:54;;;;;;;17.67;10.68;;;15.70;99.90;;;;;;4953351;29;20031;-55
2023/12/29 08:53:20;;;;;;;20.13;13.25;;;;;;;;;;4948922;28;20520;-55
2023/12/29 08:55:46;;;;;;;22.90;13.40;;;16.30;99.90;;;;;;4932090;29;20030;-55
2023/12/29 08:58:12;;;;;;;10.82;7.78;;;16.60;97.10;;;;;;4900019;29;20027;-53
2023/12/29 09:00:38;;;;;;;11.52;8.57;;;;;;;;;;4953449;29;20034;-53
2023/12/29 09:03:04;;;;;;;12.60;9.82;;;17.10;95.80;;;;;;4943349;29;20162;-50
2023/12/29 09:05:30;;;;;;;83.65;59.03;;;;;;;;;;4863120;29;20099;-50
2023/12/29 09:07:57;;;;;;;15.25;9.90;;;;;;;;;;4950680;28;20053;-53
2023/12/29 09:10:23;;;;;;;13.10;9.88;;;;;;;;;;4954276;28;20038;-53
2023/12/29 09:12:49;;;;;;;21.35;18.67;;;;;;;;;;4934793;29;20391;-53
2023/12/29 09:15:15;;;;;;;16.23;12.57;;;;;;;;;;4952415;29;20038;-52
2023/12/29 09:17:41;;;;;;;17.83;13.50;;;21.80;91.60;;;;;;4952880;29;20031;-52
2023/12/29 09:20:08;;;;;;;19.25;12.70;;;;;;;;;;4918773;29;20089;-52
2023/12/29 09:22:34;;;;;;;33.65;15.95;;;24.40;86.80;;;;;;4934796;29;20046;-52
2023/12/29 09:25:00;;;;;;;17.27;10.38;;;;;;;;;;4952764;29;20023;-52
2023/12/29 09:27:26;;;;;;;15.85;10.20;;;;;;;;;;4952509;29;20487;-52
2023/12/29 09:29:52;;;;;;;12.15;8.18;;;;;;;;;;4952367;29;20038;-53
2023/12/29 09:32:18;;;;;;;9.43;7.80;;;;;;;;;;4953000;29;20031;-50
2023/12/29 09:34:44;;;;;;;8.73;7.53;;;26.60;80.70;;;;;;4952290;29;20042;-51
2023/12/29 09:37:10;;;;;;;17.83;13.52;;;;;;;;;;4952542;29;20035;-51
2023/12/29 09:39:36;;;;;;;24.13;19.13;;;;;;;;;;4953061;29;20835;-51
2023/12/29 09:42:03;;;;;;;29.17;21.90;;;27.00;97.20;;;;;;4902815;29;20043;-51
2023/12/29 09:44:31;;;;;;;13.73;10.48;;;;;;;;;;4918462;29;20039;-50
2023/12/29 09:47:03;;;;;;;14.38;12.57;;;27.50;76.10;;;;;;4952467;29;20033;-51
2023/12/29 09:49:33;;;;;;;;;;;26.90;76.30;;;;;;4953085;29;20031;-51
2023/12/29 09:52:00;;;;;;;14.30;12.80;;;;;;;;;;4952403;29;19907;-50
2023/12/29 09:54:27;;;;;;;23.40;16.25;;;;;;;;;;4952390;29;20039;-52
2023/12/29 09:56:54;;;;;;;21.98;14.52;;;;;;;;;;4952528;29;20424;-51
2023/12/29 09:59:21;;;;;;;49.72;25.92;;;28.80;76.30;;;;;;4918495;29;20053;-51
2023/12/29 10:01:48;;;;;;;33.05;21.02;;;27.70;74.70;;;;;;4952298;29;20039;-51
2023/12/29 10:04:14;;;;;;;39.38;23.95;;;;;;;;;;4952547;29;20498;-50
2023/12/29 10:06:42;;;;;;;54.97;31.00;;;;;;;;;;4952541;29;20036;-51
2023/12/29 10:09:11;;;;;;;37.90;23.65;;;;;;;;;;4952251;29;20027;-51
2023/12/29 10:11:38;;;;;;;18.40;13.95;;;27.40;74.30;;;;;;4952192;29;20046;-53
2023/12/29 10:14:19;;;;;;;29.35;19.02;;;27.00;74.10;;;;;;4952326;29;20525;-51
2023/12/29 10:16:49;;;;;;;;;;;27.60;73.80;;;;;;4949671;28;20028;-53
2023/12/29 10:19:20;;;;;;;106.65;59.97;;;27.40;73.50;;;;;;4952725;28;19917;-51
2023/12/29 10:21:49;;;;;;;71.70;41.25;;;;;;;;;;4936956;29;20094;-52
2023/12/29 10:24:15;;;;;;;33.03;22.50;;;;;;;;;;4955362;29;20052;-52
2023/12/29 10:26:43;;;;;;;47.80;26.63;;;;;;;;;;4954883;28;20430;-52
2023/12/29 10:29:10;;;;;;;20.50;14.38;;;;;;;;;;4954511;29;20455;-52
2023/12/29 10:31:36;;;;;;;45.45;23.20;;;;;;;;;;4955771;29;20375;-54
2023/12/29 10:34:31;;;;;;;13.13;8.80;;;;;;;;;;4928642;29;20043;-51
2023/12/29 10:37:03;;;;;;;10.55;6.85;;;;;;;;;;4954545;29;20034;-51
2023/12/29 10:39:29;;;;;;;9.80;7.45;;;19.90;80.70;;;;;;4955707;29;20122;-50
2023/12/29 10:42:08;;;;;;;8.80;6.32;;;;;;;;;;4937015;29;20123;-50
2023/12/29 10:44:35;;;;;;;11.85;9.60;;;;;;;;;;4955462;29;20031;-50
2023/12/29 10:47:10;;;;;;;20.20;17.17;;;;;;;;;;4955430;29;20031;-50
2023/12/29 10:49:37;;;;;;;16.92;10.88;;;;;;;;;;4955688;29;20039;-50
2023/12/29 10:52:16;;;;;;;12.40;9.43;;;17.50;88.70;;;;;;4955176;29;20086;-49
2023/12/29 10:54:43;;;;;;;12.73;9.82;;;18.80;87.90;;;;;;4955743;29;20443;-50
2023/12/29 10:57:11;;;;;;;8.95;5.88;;;19.20;86.20;;;;;;4955392;29;20046;-50
2023/12/29 10:59:38;;;;;;;12.30;10.77;;;19.40;85.20;;;;;;4955406;29;20043;-49
2023/12/29 11:02:04;;;;;;;9.77;7.47;;;;;;;;;;4936971;29;20035;-52
2023/12/29 11:04:30;;;;;;;25.73;16.13;;;20.70;83.20;;;;;;4955257;29;20480;-50
2023/12/29 11:06:56;;;;;;;17.67;12.65;;;;;;;;;;4953129;29;20037;-50
2023/12/29 11:09:30;;;;;;;6.85;5.00;;;22.10;88.70;;;;;;4954987;29;20074;-49
2023/12/29 11:12:08;;;;;;;9.70;5.80;;;21.20;81.10;;;;;;4920596;29;20043;-49
2023/12/29 11:14:34;;;;;;;11.00;7.90;;;20.40;82.50;;;;;;4955091;29;20049;-52
2023/12/29 11:17:01;;;;;;;7.18;4.88;;;;;;;;;;4955005;29;20117;-50
2023/12/29 11:19:27;;;;;;;25.42;15.05;;;19.80;82.30;;;;;;4937623;29;20391;-50
2023/12/29 11:21:55;;;;;;;6.93;4.38;;;21.20;83.40;;;;;;4954839;29;20114;-50
2023/12/29 11:24:22;;;;;;;10.63;5.22;;;22.30;80.10;;;;;;4954814;29;20566;-49
2023/12/29 11:26:50;;;;;;;12.07;6.53;;;;;;;;;;4954562;29;20059;-50
2023/12/29 11:29:19;;;;;;;9.32;6.40;;;;;;;;;;4954750;29;20384;-50
2023/12/29 11:31:48;;;;;;;8.30;5.95;;;24.10;77.30;;;;;;4954157;28;20062;-51
2023/12/29 11:34:30;;;;;;;8.68;6.57;;;24.80;76.80;;;;;;4954594;29;20509;-50
2023/12/29 11:37:15;;;;;;;7.35;5.72;;;24.80;99.50;;;;;;4954101;29;20027;-51
2023/12/29 11:39:52;;;;;;;4.78;3.20;;;24.30;75.50;;;;;;4954407;29;20093;-50
2023/12/29 11:42:22;;;;;;;11.95;6.13;;;24.10;74.60;;;;;;4951495;29;20020;-50
2023/12/29 11:44:50;;;;;;;9.35;3.97;;;;;;;;;;4954535;29;20031;-50
2023/12/29 11:47:35;;;;;;;10.75;4.65;;;23.20;75.10;;;;;;4954385;29;20067;-51
2023/12/29 11:50:02;;;;;;;15.35;7.93;;;;;;;;;;4951407;29;20541;-50
2023/12/29 11:52:41;;;;;;;17.10;6.93;;;22.60;74.80;;;;;;4951798;29;20038;-49
2023/12/29 11:55:17;;;;;;;10.65;8.50;;;22.40;76.60;;;;;;4951266;29;20681;-50
2023/12/29 11:57:44;;;;;;;10.77;7.45;;;22.60;77.30;;;;;;4949761;29;20039;-50
2023/12/29 12:00:10;;;;;;;9.20;7.22;;;22.70;77.70;;;;;;4949923;29;20047;-50
2023/12/29 12:02:36;;;;;;;8.38;6.15;;;23.20;77.50;;;;;;4919835;29;20126;-50
2023/12/29 12:05:02;;;;;;;7.38;5.82;;;22.80;75.80;;;;;;4951260;29;20039;-50
2023/12/29 12:07:28;;;;;;;4.93;3.38;;;22.50;76.30;;;;;;4872033;29;20175;-50
2023/12/29 12:10:34;;;;;;;17.73;7.25;;;22.30;76.00;;;;;;4951374;29;20043;-50
2023/12/29 12:13:00;;;;;;;10.63;7.75;;;21.90;77.20;;;;;;4951276;29;20456;-50
2023/12/29 12:15:29;;;;;;;11.55;7.13;;;;;;;;;;4951468;29;20055;-50
2023/12/29 12:18:09;;;;;;;4.93;3.20;;;21.30;76.90;;;;;;4951208;29;20043;-50
2023/12/29 12:20:35;;;;;;;6.35;2.97;;;21.00;77.80;;;;;;4951959;29;20054;-50
2023/12/29 12:23:02;;;;;;;5.10;2.83;;;20.80;78.20;;;;;;4919652;29;20047;-50
2023/12/29 12:25:30;;;;;;;6.78;2.90;;;20.60;79.00;;;;;;4953125;29;20043;-50
2023/12/29 12:27:59;;;;;;;9.65;4.80;;;20.40;80.10;;;;;;4919296;29;20114;-50
2023/12/29 12:30:25;;;;;;;12.77;4.68;;;;;;;;;;4953449;29;20090;-49
2023/12/29 12:32:58;;;;;;;7.03;3.47;;;20.00;79.60;;;;;;4953590;29;20414;-50
2023/12/29 12:35:26;;;;;;;10.02;3.42;;;19.80;81.10;;;;;;4953624;29;20039;-52
2023/12/29 12:38:08;;;;;;;4.70;2.78;;;19.70;81.90;;;;;;4952766;29;20098;-51
2023/12/29 12:40:55;;;;;;;6.55;4.45;;;;;;;;;;4952835;29;20102;-51
2023/12/29 12:43:50;;;;;;;8.75;5.28;;;19.30;81.80;;;;;;4858274;29;20060;-50
2023/12/29 12:46:15;;;;;;;13.38;9.32;;;19.20;82.60;;;;;;4856507;29;20046;-50
2023/12/29 12:48:43;;;;;;;17.38;6.35;;;;;;;;;;4857052;29;20114;-50
2023/12/29 12:51:10;;;;;;;35.05;18.17;;;;;;;;;;4875049;29;20123;-50
2023/12/29 12:53:40;;;;;;;25.42;13.50;;;;;;;;;;4875072;29;20052;-50
2023/12/29 12:56:07;;;;;;;21.92;9.95;;;18.80;85.00;;;;;;4872327;29;20605;-50
2023/12/29 12:58:33;;;;;;;10.13;7.75;;;18.60;85.40;;;;;;4874864;29;20118;-50
2023/12/29 13:01:19;;;;;;;10.65;7.60;;;;;;;;;;4874781;29;20037;-50